createdAt,value
2017-10-10T00:00:20.440Z,13.95
2017-10-10T00:01:21.861Z,13.88
2017-10-10T00:02:23.284Z,14.01
2017-10-10T00:03:24.697Z,13.96
2017-10-10T00:04:26.112Z,13.89
2017-10-10T00:05:27.535Z,13.96
2017-10-10T00:06:28.947Z,13.98
2017-10-10T00:07:30.377Z,13.96
2017-10-10T00:08:31.906Z,13.98
2017-10-10T00:09:33.324Z,13.89
2017-10-10T00:10:34.744Z,13.96
2017-10-10T00:11:36.166Z,14.09
2017-10-10T00:12:37.593Z,13.94
2017-10-10T00:13:39.012Z,14.01
2017-10-10T00:14:40.431Z,13.88
2017-10-10T00:15:41.858Z,13.96
2017-10-10T00:16:43.275Z,13.96
2017-10-10T00:17:44.682Z,13.96
2017-10-10T00:18:46.101Z,13.87
2017-10-10T00:19:47.535Z,13.94
2017-10-10T00:20:48.959Z,13.91
2017-10-10T00:21:50.378Z,13.99
2017-10-10T00:22:51.793Z,13.99
2017-10-10T00:23:53.211Z,14.01
2017-10-10T00:24:54.638Z,14.01
2017-10-10T00:25:56.056Z,13.99
2017-10-10T00:26:57.498Z,13.96
2017-10-10T00:27:58.916Z,13.99
2017-10-10T00:29:00.338Z,13.98
2017-10-10T00:30:01.762Z,13.96
2017-10-10T00:31:03.196Z,13.96
2017-10-10T00:32:04.614Z,13.92
2017-10-10T00:33:06.052Z,14.02
2017-10-10T00:34:07.459Z,13.84
2017-10-10T00:35:08.888Z,13.89
2017-10-10T00:36:10.305Z,13.88
2017-10-10T00:37:11.721Z,13.76
2017-10-10T00:38:13.176Z,13.73
2017-10-10T00:39:14.596Z,13.76
2017-10-10T00:40:16.015Z,13.76
2017-10-10T00:41:17.462Z,13.81
2017-10-10T00:42:18.885Z,13.87
2017-10-10T00:43:20.308Z,13.92
2017-10-10T00:44:21.734Z,13.71
2017-10-10T00:45:23.153Z,13.91
2017-10-10T00:46:24.581Z,13.88
2017-10-10T00:47:25.999Z,13.88
2017-10-10T00:48:27.421Z,13.89
2017-10-10T00:49:28.836Z,13.88
2017-10-10T00:50:30.255Z,13.77
2017-10-10T00:51:31.670Z,13.83
2017-10-10T00:52:33.097Z,13.92
2017-10-10T00:53:34.529Z,13.87
2017-10-10T00:54:35.954Z,13.95
2017-10-10T00:55:37.369Z,13.99
2017-10-10T00:56:38.796Z,13.84
2017-10-10T00:57:40.209Z,13.92
2017-10-10T00:58:41.623Z,13.94
2017-10-10T00:59:43.041Z,13.87
2017-10-10T01:00:44.461Z,13.91
2017-10-10T01:01:45.894Z,13.70
2017-10-10T01:02:47.293Z,13.89
2017-10-10T01:03:48.718Z,13.83
2017-10-10T01:04:50.144Z,13.88
2017-10-10T01:05:51.566Z,13.96
2017-10-10T01:06:52.983Z,13.89
2017-10-10T01:07:54.409Z,13.81
2017-10-10T01:08:55.830Z,13.84
2017-10-10T01:09:57.254Z,13.92
2017-10-10T01:10:58.679Z,13.96
2017-10-10T01:12:00.098Z,13.91
2017-10-10T01:13:01.518Z,13.87
2017-10-10T01:14:02.947Z,13.92
2017-10-10T01:15:04.377Z,13.88
2017-10-10T01:16:05.797Z,13.88
2017-10-10T01:17:07.213Z,13.81
2017-10-10T01:18:08.630Z,13.76
2017-10-10T01:19:10.046Z,13.92
2017-10-10T01:20:11.469Z,13.94
2017-10-10T01:21:12.887Z,13.84
2017-10-10T01:22:14.304Z,13.83
2017-10-10T01:23:15.725Z,13.99
2017-10-10T01:24:17.145Z,13.92
2017-10-10T01:25:18.576Z,13.87
2017-10-10T01:26:20.000Z,13.98
2017-10-10T01:27:21.413Z,13.96
2017-10-10T01:28:22.833Z,13.98
2017-10-10T01:29:24.253Z,13.95
2017-10-10T01:30:25.665Z,13.98
2017-10-10T01:31:27.088Z,14.04
2017-10-10T01:32:28.513Z,14.02
2017-10-10T01:33:29.937Z,14.02
2017-10-10T01:34:31.365Z,13.95
2017-10-10T01:35:32.783Z,13.95
2017-10-10T01:36:34.225Z,13.92
2017-10-10T01:37:35.647Z,14.02
2017-10-10T01:38:37.067Z,13.98
2017-10-10T01:39:38.481Z,13.95
2017-10-10T01:40:39.899Z,13.99
2017-10-10T01:41:41.315Z,14.06
2017-10-10T01:42:42.731Z,13.98
2017-10-10T01:43:44.150Z,14.10
2017-10-10T01:44:45.577Z,13.96
2017-10-10T01:45:46.987Z,14.04
2017-10-10T01:46:48.413Z,14.13
2017-10-10T01:47:49.835Z,14.04
2017-10-10T01:48:51.245Z,13.99
2017-10-10T01:49:52.666Z,13.98
2017-10-10T01:50:54.094Z,14.02
2017-10-10T01:51:55.520Z,13.88
2017-10-10T01:52:56.941Z,14.01
2017-10-10T01:53:58.368Z,13.96
2017-10-10T01:54:59.782Z,13.96
2017-10-10T01:56:01.201Z,14.01
2017-10-10T01:57:02.621Z,14.02
2017-10-10T01:58:04.036Z,14.04
2017-10-10T01:59:05.457Z,13.99
2017-10-10T02:00:06.881Z,14.10
2017-10-10T02:01:08.288Z,14.06
2017-10-10T02:02:09.705Z,14.12
2017-10-10T02:03:11.122Z,14.06
2017-10-10T02:04:12.547Z,14.17
2017-10-10T02:05:14.667Z,13.98
2017-10-10T02:06:16.096Z,14.04
2017-10-10T02:07:17.514Z,14.04
2017-10-10T02:08:18.936Z,14.01
2017-10-10T02:09:20.351Z,13.98
2017-10-10T02:10:21.772Z,13.99
2017-10-10T02:11:23.188Z,14.04
2017-10-10T02:12:24.599Z,13.99
2017-10-10T02:13:26.012Z,13.96
2017-10-10T02:14:27.432Z,13.95
2017-10-10T02:15:28.858Z,14.07
2017-10-10T02:16:30.276Z,14.07
2017-10-10T02:17:31.690Z,14.01
2017-10-10T02:18:33.117Z,14.12
2017-10-10T02:19:34.540Z,14.04
2017-10-10T02:20:35.967Z,14.04
2017-10-10T02:21:37.397Z,13.99
2017-10-10T02:22:38.820Z,14.06
2017-10-10T02:23:40.242Z,13.88
2017-10-10T02:24:41.654Z,13.89
2017-10-10T02:25:43.134Z,13.95
2017-10-10T02:26:45.491Z,13.98
2017-10-10T02:27:46.905Z,13.98
2017-10-10T02:28:48.339Z,13.98
2017-10-10T02:29:49.760Z,13.94
2017-10-10T02:30:51.171Z,13.89
2017-10-10T02:31:52.596Z,13.87
2017-10-10T02:32:54.010Z,13.89
2017-10-10T02:33:55.435Z,13.87
2017-10-10T02:34:56.864Z,13.99
2017-10-10T02:35:58.288Z,13.99
2017-10-10T02:36:59.709Z,13.96
2017-10-10T02:38:01.127Z,14.12
2017-10-10T02:39:02.546Z,14.02
2017-10-10T02:40:03.960Z,13.99
2017-10-10T02:41:05.378Z,14.01
2017-10-10T02:42:06.799Z,13.95
2017-10-10T02:43:08.220Z,13.92
2017-10-10T02:44:09.648Z,13.98
2017-10-10T02:45:11.069Z,13.98
2017-10-10T02:46:12.484Z,13.95
2017-10-10T02:47:13.907Z,14.04
2017-10-10T02:48:15.333Z,13.94
2017-10-10T02:49:16.751Z,13.99
2017-10-10T02:50:18.175Z,13.88
2017-10-10T02:51:19.593Z,13.98
2017-10-10T02:52:21.015Z,14.10
2017-10-10T02:53:22.428Z,14.01
2017-10-10T02:54:23.852Z,14.04
2017-10-10T02:55:25.284Z,13.99
2017-10-10T02:56:26.697Z,13.96
2017-10-10T02:57:28.111Z,14.09
2017-10-10T02:58:29.537Z,13.98
2017-10-10T02:59:30.951Z,13.99
2017-10-10T03:00:32.377Z,13.99
2017-10-10T03:01:33.798Z,13.96
2017-10-10T03:02:35.218Z,13.98
2017-10-10T03:03:36.637Z,13.99
2017-10-10T03:04:38.055Z,14.07
2017-10-10T03:05:39.478Z,13.92
2017-10-10T03:06:40.892Z,13.99
2017-10-10T03:07:42.312Z,14.06
2017-10-10T03:08:43.730Z,14.10
2017-10-10T03:09:45.142Z,13.99
2017-10-10T03:10:46.555Z,13.99
2017-10-10T03:11:47.980Z,14.04
2017-10-10T03:12:49.401Z,14.02
2017-10-10T03:13:50.827Z,14.24
2017-10-10T03:14:52.246Z,14.24
2017-10-10T03:15:53.659Z,14.10
2017-10-10T03:16:55.075Z,14.10
2017-10-10T03:17:56.496Z,14.09
2017-10-10T03:18:57.913Z,14.24
2017-10-10T03:19:59.324Z,13.99
2017-10-10T03:21:00.744Z,14.01
2017-10-10T03:22:02.153Z,14.06
2017-10-10T03:23:03.571Z,14.04
2017-10-10T03:24:04.986Z,14.16
2017-10-10T03:25:06.405Z,14.14
2017-10-10T03:26:07.828Z,14.24
2017-10-10T03:27:09.245Z,14.32
2017-10-10T03:28:10.667Z,14.32
2017-10-10T03:29:12.084Z,14.29
2017-10-10T03:30:13.496Z,14.35
2017-10-10T03:31:14.918Z,14.34
2017-10-10T03:32:16.339Z,14.35
2017-10-10T03:33:17.756Z,14.44
2017-10-10T03:34:19.171Z,14.27
2017-10-10T03:35:20.588Z,14.31
2017-10-10T03:36:22.001Z,14.32
2017-10-10T03:37:23.426Z,14.31
2017-10-10T03:38:24.841Z,13.95
2017-10-10T03:39:26.258Z,14.07
2017-10-10T03:40:27.670Z,14.07
2017-10-10T03:41:29.084Z,14.20
2017-10-10T03:42:30.509Z,14.32
2017-10-10T03:43:31.921Z,14.34
2017-10-10T03:44:33.344Z,14.28
2017-10-10T03:45:34.762Z,14.44
2017-10-10T03:46:36.183Z,14.34
2017-10-10T03:47:37.597Z,14.46
2017-10-10T03:48:39.024Z,14.35
2017-10-10T03:49:40.435Z,14.32
2017-10-10T03:50:41.851Z,14.31
2017-10-10T03:51:43.272Z,14.47
2017-10-10T03:52:44.694Z,14.49
2017-10-10T03:53:46.109Z,14.57
2017-10-10T03:54:47.527Z,14.49
2017-10-10T03:55:48.946Z,14.29
2017-10-10T03:56:50.357Z,14.31
2017-10-10T03:57:51.773Z,14.28
2017-10-10T03:58:53.197Z,14.20
2017-10-10T03:59:54.609Z,14.24
2017-10-10T04:00:56.036Z,14.14
2017-10-10T04:01:57.455Z,14.32
2017-10-10T04:02:58.880Z,14.35
2017-10-10T04:04:00.301Z,14.37
2017-10-10T04:05:01.727Z,14.34
2017-10-10T04:06:03.151Z,14.24
2017-10-10T04:07:04.566Z,14.21
2017-10-10T04:08:05.999Z,14.27
2017-10-10T04:09:07.411Z,14.34
2017-10-10T04:10:08.841Z,14.35
2017-10-10T04:11:10.269Z,14.38
2017-10-10T04:12:11.694Z,14.44
2017-10-10T04:13:13.115Z,14.39
2017-10-10T04:14:14.534Z,14.37
2017-10-10T04:15:15.965Z,14.31
2017-10-10T04:16:17.385Z,14.38
2017-10-10T04:17:18.812Z,14.34
2017-10-10T04:18:20.232Z,14.47
2017-10-10T04:19:21.646Z,14.54
2017-10-10T04:20:23.065Z,14.56
2017-10-10T04:21:24.481Z,14.29
2017-10-10T04:22:25.895Z,14.50
2017-10-10T04:23:27.318Z,14.42
2017-10-10T04:24:28.729Z,14.24
2017-10-10T04:25:30.144Z,14.25
2017-10-10T04:26:31.566Z,14.32
2017-10-10T04:27:32.989Z,14.31
2017-10-10T04:28:34.405Z,14.43
2017-10-10T04:29:35.817Z,14.29
2017-10-10T04:30:37.319Z,14.46
2017-10-10T04:31:38.734Z,14.31
2017-10-10T04:32:40.151Z,14.35
2017-10-10T04:33:41.565Z,14.50
2017-10-10T04:34:42.987Z,14.37
2017-10-10T04:35:44.393Z,14.43
2017-10-10T04:36:45.810Z,14.34
2017-10-10T04:37:47.226Z,14.32
2017-10-10T04:38:48.655Z,14.34
2017-10-10T04:39:50.085Z,14.37
2017-10-10T04:40:51.521Z,14.34
2017-10-10T04:41:52.947Z,14.35
2017-10-10T04:42:54.446Z,14.34
2017-10-10T04:43:55.876Z,14.35
2017-10-10T04:44:57.296Z,14.32
2017-10-10T04:45:58.714Z,14.35
2017-10-10T04:47:00.130Z,14.29
2017-10-10T04:48:01.551Z,14.37
2017-10-10T04:49:02.966Z,14.43
2017-10-10T04:50:04.384Z,14.46
2017-10-10T04:51:05.801Z,14.42
2017-10-10T04:52:07.221Z,14.31
2017-10-10T04:53:08.639Z,14.38
2017-10-10T04:54:10.053Z,14.42
2017-10-10T04:55:11.471Z,14.44
2017-10-10T04:56:12.887Z,14.21
2017-10-10T04:57:14.316Z,14.29
2017-10-10T04:58:15.736Z,14.28
2017-10-10T04:59:17.164Z,14.35
2017-10-10T05:00:18.590Z,14.34
2017-10-10T05:01:20.017Z,14.34
2017-10-10T05:02:21.437Z,14.35
2017-10-10T05:03:22.854Z,14.35
2017-10-10T05:04:24.278Z,14.21
2017-10-10T05:05:25.693Z,14.24
2017-10-10T05:06:27.115Z,14.34
2017-10-10T05:07:28.533Z,14.34
2017-10-10T05:08:29.954Z,14.38
2017-10-10T05:09:31.373Z,14.31
2017-10-10T05:10:32.797Z,14.28
2017-10-10T05:11:34.217Z,14.21
2017-10-10T05:12:35.640Z,14.31
2017-10-10T05:13:37.059Z,14.32
2017-10-10T05:14:38.476Z,14.42
2017-10-10T05:15:39.890Z,14.49
2017-10-10T05:16:41.309Z,14.43
2017-10-10T05:17:42.720Z,14.44
2017-10-10T05:18:44.143Z,14.52
2017-10-10T05:19:45.562Z,14.42
2017-10-10T05:20:46.981Z,14.47
2017-10-10T05:21:48.402Z,14.46
2017-10-10T05:22:49.816Z,14.31
2017-10-10T05:23:51.237Z,14.44
2017-10-10T05:24:52.650Z,14.38
2017-10-10T05:25:54.072Z,14.47
2017-10-10T05:26:55.490Z,14.17
2017-10-10T05:27:56.914Z,14.31
2017-10-10T05:28:58.337Z,14.46
2017-10-10T05:29:59.753Z,14.49
2017-10-10T05:31:01.174Z,14.43
2017-10-10T05:32:02.593Z,14.46
2017-10-10T05:33:04.008Z,14.44
2017-10-10T05:34:05.439Z,14.29
2017-10-10T05:35:06.914Z,14.35
2017-10-10T05:36:08.331Z,14.44
2017-10-10T05:37:09.762Z,14.44
2017-10-10T05:38:11.269Z,14.46
2017-10-10T05:39:12.691Z,14.50
2017-10-10T05:40:14.119Z,14.57
2017-10-10T05:41:15.544Z,14.50
2017-10-10T05:42:16.969Z,14.47
2017-10-10T05:43:18.388Z,14.57
2017-10-10T05:44:19.815Z,14.56
2017-10-10T05:45:21.234Z,14.60
2017-10-10T05:46:22.652Z,14.34
2017-10-10T05:47:24.072Z,14.20
2017-10-10T05:48:25.489Z,14.46
2017-10-10T05:49:26.903Z,14.52
2017-10-10T05:50:28.324Z,14.37
2017-10-10T05:51:29.747Z,14.47
2017-10-10T05:52:31.170Z,14.28
2017-10-10T05:53:32.591Z,14.21
2017-10-10T05:54:34.020Z,14.29
2017-10-10T05:55:35.445Z,14.34
2017-10-10T05:56:36.854Z,14.46
2017-10-10T05:57:38.269Z,14.43
2017-10-10T05:58:39.692Z,14.37
2017-10-10T05:59:41.114Z,14.52
2017-10-10T06:00:42.532Z,14.47
2017-10-10T06:01:43.956Z,14.37
2017-10-10T06:02:45.378Z,14.39
2017-10-10T06:03:46.804Z,14.47
2017-10-10T06:04:48.220Z,14.52
2017-10-10T06:05:49.636Z,14.39
2017-10-10T06:06:51.056Z,14.49
2017-10-10T06:07:52.477Z,14.31
2017-10-10T06:08:53.904Z,14.47
2017-10-10T06:09:55.325Z,14.39
2017-10-10T06:10:56.758Z,14.46
2017-10-10T06:11:58.173Z,14.34
2017-10-10T06:12:59.599Z,14.35
2017-10-10T06:14:01.029Z,14.42
2017-10-10T06:15:02.444Z,14.56
2017-10-10T06:16:03.864Z,14.57
2017-10-10T06:17:05.285Z,14.53
2017-10-10T06:18:06.706Z,14.61
2017-10-10T06:19:08.129Z,14.54
2017-10-10T06:20:09.556Z,14.50
2017-10-10T06:21:10.977Z,14.53
2017-10-10T06:22:12.394Z,14.61
2017-10-10T06:23:13.814Z,14.54
2017-10-10T06:24:15.240Z,14.34
2017-10-10T06:25:16.670Z,14.44
2017-10-10T06:26:18.086Z,14.34
2017-10-10T06:27:19.501Z,14.53
2017-10-10T06:28:20.912Z,14.44
2017-10-10T06:29:22.336Z,14.47
2017-10-10T06:30:23.757Z,14.43
2017-10-10T06:31:25.173Z,14.60
2017-10-10T06:32:26.592Z,14.53
2017-10-10T06:33:28.024Z,14.53
2017-10-10T06:34:29.434Z,14.67
2017-10-10T06:35:30.864Z,14.47
2017-10-10T06:36:32.287Z,14.46
2017-10-10T06:37:33.705Z,14.53
2017-10-10T06:38:35.132Z,14.50
2017-10-10T06:39:36.560Z,14.61
2017-10-10T06:40:37.980Z,14.57
2017-10-10T06:41:39.398Z,14.61
2017-10-10T06:42:40.824Z,14.61
2017-10-10T06:43:42.249Z,14.47
2017-10-10T06:44:43.677Z,14.56
2017-10-10T06:45:45.091Z,14.54
2017-10-10T06:46:46.517Z,14.74
2017-10-10T06:47:47.937Z,14.68
2017-10-10T06:48:49.358Z,14.60
2017-10-10T06:49:50.775Z,14.64
2017-10-10T06:50:52.191Z,14.57
2017-10-10T06:51:53.629Z,14.50
2017-10-10T06:52:55.046Z,14.53
2017-10-10T06:53:56.469Z,14.60
2017-10-10T06:54:57.893Z,14.61
2017-10-10T06:55:59.312Z,14.57
2017-10-10T06:57:00.727Z,14.47
2017-10-10T06:58:02.160Z,14.56
2017-10-10T06:59:03.588Z,14.57
2017-10-10T07:00:05.018Z,14.68
2017-10-10T07:01:06.443Z,14.72
2017-10-10T07:02:07.857Z,14.72
2017-10-10T07:03:09.281Z,14.68
2017-10-10T07:04:10.698Z,14.57
2017-10-10T07:05:12.120Z,14.64
2017-10-10T07:06:13.583Z,14.69
2017-10-10T07:07:15.007Z,14.78
2017-10-10T07:08:16.432Z,14.81
2017-10-10T07:09:17.932Z,14.90
2017-10-10T07:10:19.349Z,14.83
2017-10-10T07:11:20.854Z,14.87
2017-10-10T07:12:22.282Z,14.95
2017-10-10T07:13:23.700Z,14.75
2017-10-10T07:14:25.117Z,14.84
2017-10-10T07:15:26.544Z,14.64
2017-10-10T07:16:27.966Z,14.61
2017-10-10T07:17:29.384Z,14.67
2017-10-10T07:18:30.807Z,14.74
2017-10-10T07:19:32.233Z,14.69
2017-10-10T07:20:33.661Z,14.71
2017-10-10T07:21:35.085Z,14.71
2017-10-10T07:22:36.521Z,14.75
2017-10-10T07:23:37.926Z,14.67
2017-10-10T07:24:39.351Z,14.69
2017-10-10T07:25:40.769Z,14.68
2017-10-10T07:26:42.197Z,14.60
2017-10-10T07:27:43.617Z,14.68
2017-10-10T07:28:45.048Z,14.69
2017-10-10T07:29:46.468Z,14.90
2017-10-10T07:30:47.891Z,14.81
2017-10-10T07:31:49.308Z,14.88
2017-10-10T07:32:50.726Z,14.80
2017-10-10T07:33:52.153Z,14.88
2017-10-10T07:34:53.576Z,14.75
2017-10-10T07:35:54.996Z,14.81
2017-10-10T07:36:56.423Z,14.61
2017-10-10T07:37:57.833Z,14.69
2017-10-10T07:38:59.257Z,14.62
2017-10-10T07:40:00.680Z,14.61
2017-10-10T07:41:02.119Z,14.67
2017-10-10T07:42:03.546Z,14.75
2017-10-10T07:43:04.962Z,14.62
2017-10-10T07:44:06.387Z,14.65
2017-10-10T07:45:07.823Z,14.62
2017-10-10T07:46:09.242Z,14.61
2017-10-10T07:47:10.660Z,14.62
2017-10-10T07:48:12.087Z,14.71
2017-10-10T07:49:13.520Z,14.69
2017-10-10T07:50:14.947Z,14.72
2017-10-10T07:51:16.369Z,14.72
2017-10-10T07:52:17.800Z,14.84
2017-10-10T07:53:19.235Z,14.72
2017-10-10T07:54:20.646Z,14.90
2017-10-10T07:55:22.081Z,14.94
2017-10-10T07:56:23.498Z,14.99
2017-10-10T07:57:24.918Z,15.03
2017-10-10T07:58:26.338Z,15.01
2017-10-10T07:59:27.758Z,15.06
2017-10-10T08:00:29.189Z,15.01
2017-10-10T08:01:30.618Z,15.06
2017-10-10T08:02:32.048Z,15.06
2017-10-10T08:03:33.466Z,15.27
2017-10-10T08:04:34.889Z,15.24
2017-10-10T08:05:36.307Z,15.24
2017-10-10T08:06:37.726Z,15.28
2017-10-10T08:07:39.152Z,15.17
2017-10-10T08:08:40.578Z,15.23
2017-10-10T08:09:42.003Z,15.38
2017-10-10T08:10:43.420Z,15.26
2017-10-10T08:11:44.849Z,15.15
2017-10-10T08:12:46.273Z,15.19
2017-10-10T08:13:47.698Z,15.09
2017-10-10T08:14:49.131Z,15.30
2017-10-10T08:15:50.557Z,15.38
2017-10-10T08:16:51.974Z,15.23
2017-10-10T08:17:53.399Z,15.27
2017-10-10T08:18:54.820Z,15.39
2017-10-10T08:19:56.255Z,15.38
2017-10-10T08:20:57.676Z,15.41
2017-10-10T08:21:59.095Z,15.26
2017-10-10T08:23:00.521Z,15.24
2017-10-10T08:24:01.943Z,15.30
2017-10-10T08:25:03.369Z,15.42
2017-10-10T08:26:04.795Z,15.38
2017-10-10T08:27:06.212Z,15.26
2017-10-10T08:28:07.646Z,15.26
2017-10-10T08:29:09.066Z,15.28
2017-10-10T08:30:10.489Z,15.42
2017-10-10T08:31:11.918Z,15.54
2017-10-10T08:32:13.351Z,15.51
2017-10-10T08:33:14.774Z,15.56
2017-10-10T08:34:16.193Z,15.46
2017-10-10T08:35:17.662Z,15.46
2017-10-10T08:36:19.087Z,15.54
2017-10-10T08:37:20.517Z,15.51
2017-10-10T08:38:21.939Z,15.60
2017-10-10T08:39:23.372Z,15.72
2017-10-10T08:40:24.792Z,15.59
2017-10-10T08:41:26.209Z,15.57
2017-10-10T08:42:27.635Z,15.54
2017-10-10T08:43:29.058Z,15.68
2017-10-10T08:44:30.494Z,15.68
2017-10-10T08:45:31.917Z,15.74
2017-10-10T08:46:33.346Z,15.78
2017-10-10T08:47:34.769Z,15.74
2017-10-10T08:48:36.205Z,15.74
2017-10-10T08:49:37.633Z,15.88
2017-10-10T08:50:39.060Z,15.85
2017-10-10T08:51:40.482Z,15.79
2017-10-10T08:52:41.904Z,15.86
2017-10-10T08:53:43.351Z,15.84
2017-10-10T08:54:44.762Z,16.01
2017-10-10T08:55:46.193Z,15.97
2017-10-10T08:56:47.618Z,16.07
2017-10-10T08:57:49.046Z,15.99
2017-10-10T08:58:50.473Z,15.97
2017-10-10T08:59:51.904Z,16.01
2017-10-10T09:00:53.328Z,16.16
2017-10-10T09:01:54.755Z,16.15
2017-10-10T09:02:56.197Z,15.93
2017-10-10T09:03:57.607Z,16.07
2017-10-10T09:04:59.040Z,16.15
2017-10-10T09:06:00.471Z,16.31
2017-10-10T09:07:01.895Z,16.30
2017-10-10T09:08:03.310Z,16.31
2017-10-10T09:09:04.732Z,16.40
2017-10-10T09:10:06.161Z,16.41
2017-10-10T09:11:07.582Z,16.42
2017-10-10T09:12:09.008Z,16.30
2017-10-10T09:13:10.433Z,16.37
2017-10-10T09:14:11.862Z,16.33
2017-10-10T09:15:13.291Z,16.33
2017-10-10T09:16:14.716Z,16.26
2017-10-10T09:17:16.150Z,16.23
2017-10-10T09:18:17.572Z,16.04
2017-10-10T09:19:19.017Z,16.26
2017-10-10T09:20:20.441Z,16.22
2017-10-10T09:21:21.896Z,16.25
2017-10-10T09:22:23.333Z,16.26
2017-10-10T09:23:24.765Z,16.33
2017-10-10T09:24:26.198Z,16.41
2017-10-10T09:25:27.630Z,16.27
2017-10-10T09:26:29.061Z,16.26
2017-10-10T09:27:30.493Z,16.33
2017-10-10T09:28:31.917Z,16.30
2017-10-10T09:29:33.340Z,16.27
2017-10-10T09:30:34.758Z,16.33
2017-10-10T09:31:36.178Z,16.40
2017-10-10T09:32:37.602Z,16.55
2017-10-10T09:33:39.033Z,16.50
2017-10-10T09:34:40.465Z,16.31
2017-10-10T09:35:41.887Z,16.25
2017-10-10T09:36:43.308Z,16.33
2017-10-10T09:37:44.739Z,16.12
2017-10-10T09:38:46.165Z,15.96
2017-10-10T09:39:47.581Z,16.00
2017-10-10T09:40:49.014Z,16.00
2017-10-10T09:41:50.441Z,16.14
2017-10-10T09:42:51.862Z,16.27
2017-10-10T09:43:53.284Z,16.27
2017-10-10T09:44:54.716Z,16.30
2017-10-10T09:45:56.133Z,16.31
2017-10-10T09:46:57.562Z,16.25
2017-10-10T09:47:58.990Z,16.56
2017-10-10T09:49:00.406Z,16.62
2017-10-10T09:50:01.843Z,16.59
2017-10-10T09:51:03.273Z,16.63
2017-10-10T09:52:04.706Z,16.74
2017-10-10T09:53:06.127Z,16.98
2017-10-10T09:54:07.617Z,16.96
2017-10-10T09:55:09.042Z,16.75
2017-10-10T09:56:13.067Z,16.93
2017-10-10T09:57:14.497Z,17.04
2017-10-10T09:58:15.916Z,17.15
2017-10-10T09:59:17.336Z,17.08
2017-10-10T10:00:18.758Z,17.13
2017-10-10T10:01:20.183Z,17.33
2017-10-10T10:02:21.613Z,17.25
2017-10-10T10:03:23.043Z,17.38
2017-10-10T10:04:24.466Z,17.14
2017-10-10T10:05:25.890Z,17.06
2017-10-10T10:06:27.314Z,17.18
2017-10-10T10:07:28.736Z,17.40
2017-10-10T10:08:30.176Z,17.40
2017-10-10T10:09:31.600Z,17.33
2017-10-10T10:10:33.047Z,17.23
2017-10-10T10:11:34.466Z,17.40
2017-10-10T10:12:35.900Z,17.64
2017-10-10T10:13:37.320Z,17.76
2017-10-10T10:14:38.762Z,17.71
2017-10-10T10:15:40.180Z,17.73
2017-10-10T10:16:41.611Z,17.55
2017-10-10T10:17:43.043Z,17.48
2017-10-10T10:18:44.468Z,17.51
2017-10-10T10:19:45.886Z,17.63
2017-10-10T10:20:47.318Z,17.55
2017-10-10T10:21:48.741Z,17.43
2017-10-10T10:22:50.167Z,17.36
2017-10-10T10:23:51.591Z,17.18
2017-10-10T10:24:53.013Z,17.35
2017-10-10T10:25:54.450Z,17.36
2017-10-10T10:26:55.876Z,17.53
2017-10-10T10:27:57.307Z,17.41
2017-10-10T10:28:58.728Z,17.41
2017-10-10T10:30:00.150Z,17.22
2017-10-10T10:31:01.583Z,17.22
2017-10-10T10:32:03.002Z,17.44
2017-10-10T10:33:04.425Z,17.51
2017-10-10T10:34:05.850Z,17.46
2017-10-10T10:35:07.281Z,17.43
2017-10-10T10:36:08.717Z,17.48
2017-10-10T10:37:10.140Z,17.25
2017-10-10T10:38:11.572Z,17.22
2017-10-10T10:39:12.988Z,17.22
2017-10-10T10:40:14.407Z,17.47
2017-10-10T10:41:15.830Z,17.35
2017-10-10T10:42:17.267Z,17.35
2017-10-10T10:43:18.689Z,17.54
2017-10-10T10:44:20.112Z,17.64
2017-10-10T10:45:21.537Z,17.51
2017-10-10T10:46:22.971Z,17.70
2017-10-10T10:47:24.395Z,17.67
2017-10-10T10:48:25.825Z,17.64
2017-10-10T10:49:27.260Z,17.48
2017-10-10T10:50:28.692Z,17.44
2017-10-10T10:51:30.121Z,17.35
2017-10-10T10:52:31.552Z,17.57
2017-10-10T10:53:32.981Z,17.63
2017-10-10T10:54:34.408Z,17.41
2017-10-10T10:55:35.830Z,17.48
2017-10-10T10:56:37.251Z,17.40
2017-10-10T10:57:38.677Z,17.32
2017-10-10T10:58:40.123Z,17.20
2017-10-10T10:59:41.549Z,17.25
2017-10-10T11:00:42.982Z,17.33
2017-10-10T11:01:44.401Z,17.41
2017-10-10T11:02:45.826Z,17.33
2017-10-10T11:03:47.250Z,17.36
2017-10-10T11:04:48.684Z,17.22
2017-10-10T11:05:50.107Z,17.73
2017-10-10T11:06:51.540Z,17.64
2017-10-10T11:07:52.958Z,17.74
2017-10-10T11:08:54.390Z,17.76
2017-10-10T11:09:55.815Z,17.95
2017-10-10T11:10:57.242Z,18.24
2017-10-10T11:11:58.670Z,18.39
2017-10-10T11:13:00.107Z,18.25
2017-10-10T11:14:01.541Z,18.29
2017-10-10T11:15:02.975Z,18.46
2017-10-10T11:16:04.404Z,18.79
2017-10-10T11:17:05.829Z,18.83
2017-10-10T11:18:07.262Z,18.77
2017-10-10T11:19:08.697Z,18.72
2017-10-10T11:20:10.114Z,18.50
2017-10-10T11:21:11.531Z,18.36
2017-10-10T11:22:12.959Z,18.24
2017-10-10T11:23:14.385Z,18.00
2017-10-10T11:24:15.810Z,18.09
2017-10-10T11:25:17.255Z,18.21
2017-10-10T11:26:18.688Z,18.04
2017-10-10T11:27:20.115Z,17.95
2017-10-10T11:28:21.597Z,18.06
2017-10-10T11:29:23.023Z,18.03
2017-10-10T11:30:24.448Z,18.24
2017-10-10T11:31:25.877Z,18.25
2017-10-10T11:32:27.304Z,18.09
2017-10-10T11:33:28.733Z,17.78
2017-10-10T11:34:30.162Z,17.73
2017-10-10T11:35:31.581Z,17.76
2017-10-10T11:36:33.004Z,17.54
2017-10-10T11:37:34.429Z,17.25
2017-10-10T11:38:35.859Z,17.26
2017-10-10T11:39:37.289Z,17.40
2017-10-10T11:40:38.706Z,17.07
2017-10-10T11:41:40.140Z,17.33
2017-10-10T11:42:41.575Z,17.55
2017-10-10T11:43:43.014Z,17.99
2017-10-10T11:44:44.441Z,18.34
2017-10-10T11:45:45.863Z,18.74
2017-10-10T11:46:47.303Z,19.11
2017-10-10T11:47:48.732Z,19.43
2017-10-10T11:48:50.162Z,19.06
2017-10-10T11:49:51.592Z,18.55
2017-10-10T11:50:53.010Z,18.22
2017-10-10T11:51:54.449Z,18.10
2017-10-10T11:52:55.874Z,18.02
2017-10-10T11:53:57.309Z,17.99
2017-10-10T11:54:58.738Z,17.66
2017-10-10T11:56:00.167Z,17.62
2017-10-10T11:57:01.599Z,17.53
2017-10-10T11:58:03.020Z,17.25
2017-10-10T11:59:04.446Z,17.35
2017-10-10T12:00:05.876Z,17.20
2017-10-10T12:01:07.299Z,17.03
2017-10-10T12:02:08.722Z,17.08
2017-10-10T12:03:10.223Z,17.10
2017-10-10T12:04:11.645Z,17.08
2017-10-10T12:05:13.094Z,17.25
2017-10-10T12:06:14.526Z,17.38
2017-10-10T12:07:15.953Z,17.64
2017-10-10T12:08:17.409Z,17.66
2017-10-10T12:09:18.843Z,17.74
2017-10-10T12:10:20.285Z,17.78
2017-10-10T12:11:21.718Z,18.36
2017-10-10T12:12:23.180Z,18.44
2017-10-10T12:13:24.610Z,18.02
2017-10-10T12:14:26.034Z,17.70
2017-10-10T12:15:27.459Z,17.76
2017-10-10T12:16:28.889Z,17.74
2017-10-10T12:17:30.316Z,17.85
2017-10-10T12:18:31.756Z,17.81
2017-10-10T12:19:33.186Z,17.74
2017-10-10T12:20:34.617Z,19.02
2017-10-10T12:21:36.040Z,24.19
2017-10-10T12:22:37.463Z,26.02
2017-10-10T12:23:38.900Z,27.16
2017-10-10T12:24:40.340Z,28.66
2017-10-10T12:25:41.780Z,27.99
2017-10-10T12:26:43.208Z,26.42
2017-10-10T12:27:44.629Z,24.68
2017-10-10T12:28:46.075Z,23.23
2017-10-10T12:29:47.504Z,21.90
2017-10-10T12:30:48.943Z,20.46
2017-10-10T12:31:50.360Z,20.16
2017-10-10T12:32:51.799Z,20.08
2017-10-10T12:33:53.225Z,19.61
2017-10-10T12:34:54.656Z,19.42
2017-10-10T12:35:56.087Z,19.78
2017-10-10T12:36:57.516Z,19.02
2017-10-10T12:37:58.949Z,18.90
2017-10-10T12:39:00.371Z,18.67
2017-10-10T12:40:01.804Z,18.17
2017-10-10T12:41:03.241Z,18.03
2017-10-10T12:42:04.665Z,18.22
2017-10-10T12:43:06.094Z,18.22
2017-10-10T12:44:07.525Z,18.15
2017-10-10T12:45:08.963Z,18.36
2017-10-10T12:46:10.405Z,18.40
2017-10-10T12:47:11.832Z,18.55
2017-10-10T12:48:13.263Z,18.50
2017-10-10T12:49:14.687Z,18.19
2017-10-10T12:50:16.124Z,18.17
2017-10-10T12:51:17.549Z,18.27
2017-10-10T12:52:18.982Z,18.13
2017-10-10T12:53:20.420Z,18.18
2017-10-10T12:54:21.865Z,18.21
2017-10-10T12:55:23.292Z,18.19
2017-10-10T12:56:24.726Z,18.39
2017-10-10T12:57:26.166Z,18.49
2017-10-10T12:58:27.585Z,18.27
2017-10-10T12:59:29.014Z,18.19
2017-10-10T13:00:30.438Z,18.03
2017-10-10T13:01:31.859Z,18.03
2017-10-10T13:02:33.293Z,17.87
2017-10-10T13:03:34.715Z,17.84
2017-10-10T13:04:36.139Z,17.74
2017-10-10T13:05:37.562Z,17.79
2017-10-10T13:06:38.987Z,17.81
2017-10-10T13:07:40.408Z,17.63
2017-10-10T13:08:41.833Z,17.70
2017-10-10T13:09:43.256Z,17.63
2017-10-10T13:10:44.700Z,17.71